Time;durP1;ratioP1;P1;durP2;ratioP2;P2;SDS_P1;SDS_P2;PMS_P1;PMS_P2;Temp;Humidity;BMP_temperature;BMP_pressure;BME280_temperature;BME280_humidity;BME280_pressure;Samples;Min_cycle;Max_cycle;Signal;HPM_P1;HPM_P2
2020/12/17 00:02:06;;;;;;;26.50;11.00;;;;;;;8.45;79.58;99732.69;4409875;32;20064;-76
2020/12/17 00:04:32;;;;;;;31.30;10.57;;;;;;;8.41;79.84;99730.03;4412981;32;20411;-77
2020/12/17 00:06:58;;;;;;;22.92;10.50;;;;;;;8.41;79.23;99732.81;4409008;32;20437;-77
2020/12/17 00:09:23;;;;;;;23.52;10.43;;;;;;;8.40;79.07;99728.44;4411890;32;20407;-76
2020/12/17 00:11:49;;;;;;;22.80;10.30;;;;;;;8.38;79.50;99736.53;4412473;32;20038;-77
2020/12/17 00:14:15;;;;;;;20.95;11.05;;;;;;;8.34;79.80;99730.22;4412535;32;20083;-77
2020/12/17 00:16:41;;;;;;;22.30;11.48;;;;;;;8.30;79.80;99745.56;4411184;32;20152;-76
2020/12/17 00:19:08;;;;;;;23.25;10.20;;;;;;;8.29;79.95;99739.22;4412427;32;20374;-77
2020/12/17 00:21:34;;;;;;;23.58;10.10;;;;;;;8.18;80.17;99736.69;4412400;32;20064;-78
2020/12/17 00:24:00;;;;;;;23.42;11.55;;;;;;;8.17;80.08;99728.72;4413234;32;20061;-77
2020/12/17 00:26:25;;;;;;;27.98;11.12;;;;;;;8.17;80.13;99734.34;4411914;32;20842;-79
2020/12/17 00:28:54;;;;;;;26.85;11.02;;;;;;;8.22;79.86;99738.59;4411621;32;20321;-77
2020/12/17 00:31:20;;;;;;;22.35;10.45;;;;;;;8.27;79.40;99738.84;4411871;32;20540;-77
2020/12/17 00:33:47;;;;;;;28.62;10.95;;;;;;;8.18;79.34;99739.50;4424633;26;20074;-73
2020/12/17 00:36:18;;;;;;;22.83;10.93;;;;;;;8.10;79.44;99738.12;4406712;32;20095;-76
2020/12/17 00:38:45;;;;;;;28.98;10.93;;;;;;;8.02;80.02;99730.38;4406454;32;20150;-77
2020/12/17 00:41:12;;;;;;;20.45;9.98;;;;;;;7.90;80.23;99734.75;4411588;32;20037;-76
2020/12/17 00:43:38;;;;;;;27.42;11.20;;;;;;;7.92;80.27;99723.84;4407973;32;20089;-75
2020/12/17 00:46:04;;;;;;;26.85;12.10;;;;;;;7.87;80.82;99718.81;4410522;32;20162;-75
2020/12/17 00:48:29;;;;;;;29.55;11.98;;;;;;;7.78;81.15;99718.69;4407463;32;20051;-77
2020/12/17 00:50:55;;;;;;;27.85;11.77;;;;;;;7.71;81.48;99713.28;4406443;32;20042;-75
2020/12/17 00:53:21;;;;;;;32.67;12.65;;;;;;;7.62;82.02;99712.37;4408607;32;20087;-76
2020/12/17 00:55:46;;;;;;;31.12;12.07;;;;;;;7.46;82.70;99709.63;4410429;32;20098;-77
2020/12/17 00:58:12;;;;;;;31.65;13.10;;;;;;;7.34;83.52;99708.31;4406606;32;20387;-75
2020/12/17 01:00:37;;;;;;;30.92;12.85;;;;;;;7.23;84.45;99713.44;4406582;32;20128;-77
2020/12/17 01:03:03;;;;;;;24.77;11.45;;;;;;;7.21;84.54;99715.88;4408802;32;20453;-76
2020/12/17 01:05:29;;;;;;;32.33;11.70;;;;;;;7.27;84.76;99722.53;4407662;32;20405;-73
2020/12/17 01:07:54;;;;;;;29.23;12.50;;;;;;;7.33;84.62;99717.19;4407903;32;20126;-75
2020/12/17 01:10:20;;;;;;;29.98;12.20;;;;;;;7.34;84.67;99716.72;4407193;32;20434;-73
2020/12/17 01:12:45;;;;;;;34.28;12.70;;;;;;;7.33;85.38;99709.56;4408047;32;20109;-73
2020/12/17 01:15:11;;;;;;;33.45;13.38;;;;;;;7.37;85.58;99721.44;4408826;32;20159;-74
2020/12/17 01:17:37;;;;;;;31.45;12.85;;;;;;;7.37;85.91;99723.47;4407261;32;20422;-75
2020/12/17 01:20:03;;;;;;;28.90;12.63;;;;;;;7.37;86.36;99727.03;4405565;32;20046;-74
2020/12/17 01:22:28;;;;;;;32.78;12.37;;;;;;;7.44;85.91;99724.06;4406139;32;20111;-74
2020/12/17 01:24:54;;;;;;;33.28;12.07;;;;;;;7.56;85.56;99719.72;4409599;32;20097;-73
2020/12/17 01:27:20;;;;;;;31.83;14.38;;;;;;;7.63;85.26;99717.53;4408123;32;20102;-74
2020/12/17 01:29:45;;;;;;;28.58;12.02;;;;;;;7.67;84.82;99723.03;4407690;32;20056;-74
2020/12/17 01:32:11;;;;;;;32.88;11.88;;;;;;;7.77;84.51;99719.13;4409822;32;20109;-74
2020/12/17 01:34:37;;;;;;;23.67;10.98;;;;;;;7.92;83.77;99721.06;4399347;32;20094;-75
2020/12/17 01:37:03;;;;;;;27.45;11.50;;;;;;;7.97;83.21;99728.91;4396899;32;20077;-75
2020/12/17 01:39:28;;;;;;;27.40;11.12;;;;;;;7.99;83.00;99726.47;4396945;32;20034;-74
2020/12/17 01:41:54;;;;;;;31.85;11.52;;;;;;;8.04;82.79;99733.53;4395370;32;20475;-75
2020/12/17 01:44:20;;;;;;;24.20;10.77;;;;;;;8.06;82.62;99740.25;4396729;32;20138;-75
2020/12/17 01:46:46;;;;;;;23.08;10.77;;;;;;;8.09;82.72;99733.75;4400371;32;20092;-74
2020/12/17 01:49:17;;;;;;;31.67;11.45;;;;;;;8.14;82.32;99732.44;4397821;32;20549;-75
2020/12/17 01:51:43;;;;;;;21.35;10.52;;;;;;;8.14;82.22;99738.81;4397494;32;20066;-75
2020/12/17 01:54:08;;;;;;;24.52;11.68;;;;;;;8.10;82.04;99731.72;4384614;32;20061;-75
2020/12/17 01:56:35;;;;;;;21.95;10.93;;;;;;;8.11;82.43;99727.72;4394284;32;20132;-75
2020/12/17 02:01:53;;;;;;;21.50;9.93;;;;;;;8.57;80.80;99741.13;3977735;32;15078670;-74
2020/12/17 02:04:22;;;;;;;25.05;10.20;;;;;;;8.57;80.80;99741.13;4438158;32;20048;-73
2020/12/17 02:06:48;;;;;;;24.65;10.35;;;;;;;8.18;81.84;99741.50;4436790;32;20048;-76
2020/12/17 02:09:15;;;;;;;27.62;9.80;;;;;;;8.21;81.56;99743.41;4434517;32;20065;-76
2020/12/17 02:11:50;;;;;;;25.58;10.50;;;;;;;8.15;81.58;99745.19;4440953;32;20136;-75
2020/12/17 02:14:15;;;;;;;27.08;9.02;;;;;;;8.15;81.57;99745.19;4429519;32;20083;-76
2020/12/17 02:16:41;;;;;;;24.65;9.77;;;;;;;8.17;81.40;99739.94;4438282;32;20150;-76
2020/12/17 02:19:06;;;;;;;28.90;8.52;;;;;;;8.20;81.40;99747.47;4438081;32;20075;-76
2020/12/17 02:21:32;;;;;;;24.55;9.43;;;;;;;8.19;81.37;99751.47;4435753;32;20045;-76
2020/12/17 02:23:59;;;;;;;24.63;8.98;;;;;;;8.21;81.31;99754.63;4435216;32;20144;-75
2020/12/17 02:26:24;;;;;;;22.92;9.20;;;;;;;8.32;81.27;99751.53;4438501;32;20049;-75
2020/12/17 02:28:50;;;;;;;22.95;9.23;;;;;;;8.28;81.18;99760.03;4435628;32;20019;-76
2020/12/17 02:31:16;;;;;;;20.20;9.32;;;;;;;8.27;81.28;99766.09;4441633;32;20126;-77
2020/12/17 02:33:42;;;;;;;26.33;9.95;;;;;;;8.24;81.07;99755.78;4431527;32;20545;-76
2020/12/17 02:36:07;;;;;;;21.40;10.10;;;;;;;8.37;80.67;99757.34;4418913;32;20456;-76
2020/12/17 02:38:33;;;;;;;29.15;10.50;;;;;;;8.47;80.40;99761.84;4418176;32;20100;-77
2020/12/17 02:40:59;;;;;;;23.60;10.00;;;;;;;8.47;80.52;99755.47;4419691;32;20117;-77
2020/12/17 02:43:24;;;;;;;24.83;10.63;;;;;;;8.49;80.21;99755.78;4424042;32;20041;-77
2020/12/17 02:45:50;;;;;;;22.27;9.93;;;;;;;8.49;80.07;99755.78;4418728;32;20071;-77
2020/12/17 02:48:17;;;;;;;25.75;9.50;;;;;;;8.48;80.29;99763.44;4424167;32;20437;-75
2020/12/17 02:50:44;;;;;;;21.80;10.38;;;;;;;8.43;80.36;99777.22;4420332;32;20066;-76
2020/12/17 02:53:11;;;;;;;20.17;9.35;;;;;;;8.40;80.71;99773.28;4423205;32;20096;-76
2020/12/17 02:55:37;;;;;;;31.55;10.32;;;;;;;8.40;80.56;99778.88;4422867;32;20381;-76
2020/12/17 02:58:04;;;;;;;24.23;10.52;;;;;;;8.33;80.74;99781.13;4421328;32;20041;-75
2020/12/17 03:00:30;;;;;;;24.25;10.30;;;;;;;8.38;80.53;99774.97;4420724;32;20029;-74
2020/12/17 03:02:56;;;;;;;24.83;10.48;;;;;;;8.46;80.09;99779.91;4420382;32;20152;-76
2020/12/17 03:05:22;;;;;;;25.83;10.13;;;;;;;8.30;80.60;99774.41;4421907;32;20078;-74
2020/12/17 03:07:47;;;;;;;26.10;9.90;;;;;;;8.44;80.50;99773.19;4422327;32;20074;-76
2020/12/17 03:10:13;;;;;;;20.08;10.07;;;;;;;8.49;80.28;99781.81;4425576;32;20428;-76
2020/12/17 03:12:42;;;;;;;28.85;10.30;;;;;;;8.63;80.01;99772.19;4408041;32;20042;-76
2020/12/17 03:15:08;;;;;;;28.73;10.10;;;;;;;8.66;79.80;99769.28;4413084;32;20076;-76
2020/12/17 03:17:35;;;;;;;23.20;9.95;;;;;;;8.69;79.70;99779.59;4409125;32;20101;-75
2020/12/17 03:20:00;;;;;;;22.65;10.30;;;;;;;8.73;79.37;99785.06;4408749;32;20815;-75
2020/12/17 03:22:26;;;;;;;19.92;10.27;;;;;;;8.84;78.67;99783.50;4409551;32;20411;-75
2020/12/17 03:24:52;;;;;;;23.50;9.93;;;;;;;8.95;78.62;99791.56;4411897;32;20105;-76
2020/12/17 03:27:18;;;;;;;26.60;10.15;;;;;;;9.02;78.36;99794.16;4409584;32;20068;-75
2020/12/17 03:29:43;;;;;;;24.55;9.85;;;;;;;9.07;78.11;99785.97;4414048;32;20061;-75
2020/12/17 03:32:09;;;;;;;22.35;9.77;;;;;;;9.02;78.59;99789.31;4410408;32;20091;-77
2020/12/17 03:34:35;;;;;;;23.92;9.60;;;;;;;8.98;78.50;99773.84;4413547;32;20066;-76
2020/12/17 03:37:00;;;;;;;18.40;9.32;;;;;;;8.94;78.63;99779.56;4408292;32;21220;-76
2020/12/17 03:39:26;;;;;;;23.48;9.15;;;;;;;8.90;78.77;99778.13;4410094;32;20065;-75
2020/12/17 03:41:52;;;;;;;23.75;9.70;;;;;;;8.98;78.60;99780.25;4408979;32;20081;-76
2020/12/17 03:44:17;;;;;;;30.33;10.25;;;;;;;8.83;79.34;99779.13;4408839;32;20055;-75
2020/12/17 03:46:43;;;;;;;27.80;10.18;;;;;;;8.86;79.23;99769.81;4412759;32;20101;-75
2020/12/17 03:49:08;;;;;;;31.10;10.57;;;;;;;8.86;79.34;99777.44;4407061;32;20096;-74
2020/12/17 03:51:34;;;;;;;35.80;16.40;;;;;;;8.83;79.22;99790.34;4412193;32;20026;-76
2020/12/17 03:54:00;;;;;;;18.95;9.45;;;;;;;8.84;79.31;99791.91;4408901;32;20026;-76
2020/12/17 03:56:26;;;;;;;24.98;9.52;;;;;;;8.85;79.67;99792.69;4407502;32;20089;-77
2020/12/17 03:58:52;;;;;;;20.45;9.18;;;;;;;8.87;79.43;99793.06;4409453;32;20046;-75
2020/12/17 04:01:17;;;;;;;23.73;9.93;;;;;;;8.82;79.78;99799.22;4406584;32;20088;-75
2020/12/17 04:03:43;;;;;;;21.98;10.27;;;;;;;8.79;79.44;99797.31;4412593;32;20038;-76
2020/12/17 04:06:08;;;;;;;23.67;10.27;;;;;;;8.94;79.06;99804.84;4410877;32;20725;-76
2020/12/17 04:08:34;;;;;;;29.45;9.45;;;;;;;8.87;79.42;99807.84;4411981;32;20093;-76
2020/12/17 04:11:00;;;;;;;23.87;10.82;;;;;;;8.88;79.27;99812.25;4408077;32;20069;-76
2020/12/17 04:13:25;;;;;;;25.77;10.32;;;;;;;8.96;78.84;99805.16;4414025;32;20119;-76
2020/12/17 04:15:51;;;;;;;29.83;10.38;;;;;;;9.00;78.71;99802.25;4411632;32;20112;-76
2020/12/17 04:18:16;;;;;;;22.52;9.15;;;;;;;8.86;79.41;99800.66;4404365;32;20473;-76
2020/12/17 04:20:42;;;;;;;22.05;9.38;;;;;;;9.14;78.59;99808.16;4412544;32;20086;-75
2020/12/17 04:23:08;;;;;;;19.42;8.48;;;;;;;9.08;78.92;99801.53;4409373;32;20144;-76
2020/12/17 04:25:33;;;;;;;24.12;9.07;;;;;;;9.25;78.49;99805.81;4410601;32;20120;-77
2020/12/17 04:27:59;;;;;;;19.20;8.23;;;;;;;9.29;78.40;99802.84;4410694;32;20117;-75
2020/12/17 04:30:24;;;;;;;19.37;7.20;;;;;;;9.35;78.38;99815.09;4410310;32;20084;-75
2020/12/17 04:32:50;;;;;;;21.62;7.62;;;;;;;9.22;78.29;99803.91;4411250;32;20088;-74
2020/12/17 04:35:16;;;;;;;17.50;7.32;;;;;;;9.25;77.93;99803.00;4408878;32;20445;-75
2020/12/17 04:37:42;;;;;;;15.48;7.45;;;;;;;9.42;78.07;99807.22;4411297;32;20101;-74
2020/12/17 04:40:07;;;;;;;14.10;6.68;;;;;;;9.43;77.52;99814.41;4408877;32;20475;-75
2020/12/17 04:42:34;;;;;;;18.23;6.65;;;;;;;9.50;77.52;99808.53;4408247;32;20071;-75
2020/12/17 04:45:01;;;;;;;16.65;5.50;;;;;;;9.47;77.65;99817.87;4408644;32;20018;-76
2020/12/17 04:47:31;;;;;;;18.35;6.32;;;;;;;9.37;77.88;99815.44;4407331;32;20095;-73
2020/12/17 04:50:06;;;;;;;18.58;5.70;;;;;;;9.39;77.54;99816.53;4410010;32;20065;-76
2020/12/17 04:52:36;;;;;;;12.07;4.87;;;;;;;9.56;76.85;99820.78;4407799;32;20046;-74
2020/12/17 04:55:02;;;;;;;19.62;5.03;;;;;;;9.62;76.85;99826.59;4409248;32;20471;-73
2020/12/17 04:57:29;;;;;;;15.48;5.57;;;;;;;9.65;76.22;99825.69;4410523;32;20212;-74
2020/12/17 04:59:55;;;;;;;11.57;5.18;;;;;;;9.59;76.17;99833.13;4409918;32;20034;-74
2020/12/17 05:02:22;;;;;;;14.70;5.30;;;;;;;9.44;76.58;99834.84;4407584;32;20102;-74
2020/12/17 05:04:49;;;;;;;12.55;4.80;;;;;;;9.30;77.30;99827.66;4408198;32;20054;-73
2020/12/17 05:07:19;;;;;;;9.57;4.72;;;;;;;9.18;78.22;99825.66;4412187;32;20194;-75
2020/12/17 05:09:46;;;;;;;12.43;4.65;;;;;;;9.12;78.27;99827.50;4407757;32;20038;-74
2020/12/17 05:12:12;;;;;;;13.25;4.72;;;;;;;9.11;78.00;99837.12;4407797;32;20132;-74
2020/12/17 05:14:39;;;;;;;14.40;4.70;;;;;;;9.03;78.35;99844.22;4410046;32;20030;-75
2020/12/17 05:17:05;;;;;;;14.25;4.30;;;;;;;9.01;78.33;99837.47;4411980;32;20026;-74
2020/12/17 05:19:31;;;;;;;15.82;4.50;;;;;;;8.98;78.80;99836.34;4409652;32;20062;-75
2020/12/17 05:21:58;;;;;;;10.20;4.50;;;;;;;8.97;78.35;99840.41;4409424;32;20155;-74
2020/12/17 05:24:25;;;;;;;10.45;4.45;;;;;;;9.01;78.45;99834.66;4404727;32;20101;-75
2020/12/17 05:26:53;;;;;;;11.02;4.15;;;;;;;8.98;78.45;99849.59;4407418;32;20022;-75
2020/12/17 05:29:20;;;;;;;10.38;4.25;;;;;;;8.92;78.49;99845.78;4408321;32;20120;-75
2020/12/17 05:31:47;;;;;;;12.40;4.40;;;;;;;8.90;79.03;99846.22;4409646;32;20100;-75
2020/12/17 05:34:13;;;;;;;13.23;4.28;;;;;;;8.96;79.05;99849.28;4410702;32;20078;-74
2020/12/17 05:36:42;;;;;;;10.88;4.45;;;;;;;8.87;79.05;99837.94;4411078;32;20805;-74
2020/12/17 05:41:47;;;;;;;11.70;5.03;;;;;;;8.70;80.07;99856.87;3957103;32;15725290;-74
2020/12/17 05:46:55;;;;;;;16.40;5.15;;;;;;;9.07;79.37;99881.38;3984921;32;15024104;-74
2020/12/17 05:57:31;;;;;;;15.07;4.72;;;;;;;8.95;79.76;99889.78;3984437;32;15025722;-74
2020/12/17 05:59:59;;;;;;;9.40;4.62;;;;;;;8.95;79.76;99889.78;4440385;32;20103;-74
2020/12/17 06:12:58;;;;;;;19.52;4.93;;;;;;;9.19;78.51;99902.25;3987294;32;15021203;-74
2020/12/17 06:15:26;;;;;;;14.20;5.18;;;;;;;9.19;78.51;99902.25;4435770;32;20480;-73
2020/12/17 06:17:57;;;;;;;11.25;4.80;;;;;;;8.79;78.82;99907.50;4435277;32;20117;-74
2020/12/17 06:20:25;;;;;;;14.30;5.47;;;;;;;8.93;78.69;99915.47;4434171;32;20013;-75
2020/12/17 06:25:29;;;;;;;12.70;3.55;;;;;;;9.25;77.75;99912.47;3985879;32;15022258;-75
2020/12/17 06:27:56;;;;;;;11.30;4.68;;;;;;;9.25;77.75;99912.47;4440812;32;20068;-74
2020/12/17 06:30:26;;;;;;;11.50;4.60;;;;;;;8.84;78.91;99917.37;4440303;32;20148;-76
2020/12/17 06:33:00;;;;;;;11.35;4.07;;;;;;;8.74;79.34;99910.84;4436379;32;20081;-75
2020/12/17 06:38:27;;;;;;;12.48;4.82;;;;;;;9.00;79.13;99932.13;3985097;32;15021183;-76
2020/12/17 06:40:54;;;;;;;13.90;4.85;;;;;;;9.00;79.13;99932.13;4435830;32;20051;-75
2020/12/17 06:43:38;;;;;;;11.05;4.40;;;;;;;8.62;80.29;99931.25;4432792;32;20081;-76
2020/12/17 06:46:04;;;;;;;11.68;3.75;;;;;;;8.66;80.19;99931.94;4437770;32;20014;-76
2020/12/17 06:51:29;;;;;;;11.30;3.78;;;;;;;8.86;79.73;99954.97;3984574;32;15021970;-74
2020/12/17 06:53:55;;;;;;;9.38;3.85;;;;;;;8.86;79.73;99954.97;4440825;32;20107;-74
2020/12/17 06:56:21;;;;;;;11.05;4.00;;;;;;;8.45;80.75;99954.19;4437717;32;20092;-74
2020/12/17 06:58:47;;;;;;;11.90;4.00;;;;;;;8.30;81.29;99947.37;4441140;32;20202;-74
2020/12/17 07:01:27;;;;;;;12.10;4.18;;;;;;;8.32;81.45;99948.53;4440216;32;20497;-74
2020/12/17 07:03:53;;;;;;;15.57;4.82;;;;;;;8.37;81.14;99947.97;4436846;32;20678;-76
2020/12/17 07:08:57;;;;;;;19.08;4.50;;;;;;;8.77;80.29;99962.50;3999933;31;15015434;-76
2020/12/17 07:11:41;;;;;;;13.98;4.10;;;;;;;8.77;80.29;99962.50;4454152;32;20089;-76
2020/12/17 07:14:10;;;;;;;9.53;4.37;;;;;;;8.32;81.38;99958.97;4457566;32;20064;-77
2020/12/17 07:16:37;;;;;;;13.60;4.60;;;;;;;8.38;81.09;99963.59;4444288;32;20246;-77
2020/12/17 07:22:13;;;;;;;11.18;4.78;;;;;;;8.46;80.79;99967.75;3984579;32;15021807;-74
2020/12/17 07:27:16;;;;;;;12.13;4.30;;;;;;;8.59;80.76;99987.44;3985024;32;15021357;-77
2020/12/17 07:43:03;;;;;;;12.15;5.97;;;;;;;8.53;80.96;100006.81;3980901;32;15023197;-76
2020/12/17 07:54:01;;;;;;;23.80;7.37;;;;;;;8.58;80.70;100014.69;3980227;32;15027740;-76
2020/12/17 07:56:27;;;;;;;19.60;7.00;;;;;;;8.58;80.70;100014.69;4430133;32;20113;-76
2020/12/17 07:58:53;;;;;;;17.48;7.40;;;;;;;8.22;81.04;100008.44;4420349;32;20490;-77
2020/12/17 08:01:19;;;;;;;25.88;6.60;;;;;;;8.23;81.03;100006.44;4422311;32;20094;-77
2020/12/17 08:06:26;;;;;;;11.60;4.13;;;;;;;8.84;79.47;100018.38;3979513;31;15016970;-77
2020/12/17 08:08:54;;;;;;;11.27;3.97;;;;;;;8.84;79.47;100018.38;4424275;32;20121;-77
2020/12/17 08:11:20;;;;;;;14.30;4.60;;;;;;;8.40;80.23;100013.63;4421204;32;20072;-77
2020/12/17 08:13:46;;;;;;;15.27;4.62;;;;;;;8.39;80.31;100023.22;4419860;32;20110;-76
2020/12/17 08:16:11;;;;;;;10.40;3.90;;;;;;;8.36;80.62;100019.31;4420970;32;20078;-76
2020/12/17 08:18:37;;;;;;;14.25;3.60;;;;;;;8.36;80.39;100021.31;4420096;32;20093;-77
2020/12/17 08:23:44;;;;;;;10.60;4.18;;;;;;;8.64;80.34;100040.16;3974973;32;15022197;-73
2020/12/17 08:26:16;;;;;;;9.00;3.85;;;;;;;8.64;80.34;100040.16;4418809;32;20081;-74
2020/12/17 08:28:42;;;;;;;13.90;5.00;;;;;;;8.31;80.68;100042.25;4426142;32;20080;-74
2020/12/17 08:31:12;;;;;;;11.15;3.47;;;;;;;8.19;81.17;100048.53;4423855;32;20117;-74
2020/12/17 08:33:41;;;;;;;12.95;4.43;;;;;;;8.27;81.21;100049.19;4420573;32;20212;-75
2020/12/17 08:36:10;;;;;;;15.32;4.00;;;;;;;8.24;80.97;100064.06;4422434;32;20185;-75
2020/12/17 08:38:38;;;;;;;14.95;5.32;;;;;;;8.25;81.00;100063.63;4423598;32;20049;-75
2020/12/17 08:41:06;;;;;;;10.90;4.22;;;;;;;8.36;80.65;100066.16;4422557;32;20084;-75
2020/12/17 08:43:41;;;;;;;19.50;5.18;;;;;;;8.35;80.39;100064.59;4425285;32;20074;-77
2020/12/17 08:46:15;;;;;;;8.32;4.12;;;;;;;8.34;80.58;100072.22;4422323;32;20059;-74
2020/12/17 08:48:42;;;;;;;19.90;4.70;;;;;;;8.40;80.00;100078.09;4415360;32;20073;-73
2020/12/17 08:51:11;;;;;;;13.95;4.45;;;;;;;8.49;79.72;100078.22;4415066;32;20206;-73
2020/12/17 08:53:41;;;;;;;10.95;4.87;;;;;;;8.47;79.95;100078.66;4416166;32;20126;-73
2020/12/17 08:56:17;;;;;;;11.45;4.53;;;;;;;8.39;79.51;100088.50;4417215;32;20050;-73
2020/12/17 08:58:45;;;;;;;10.98;3.75;;;;;;;8.40;79.72;100089.31;4418343;32;20033;-73
2020/12/17 09:01:29;;;;;;;11.88;3.90;;;;;;;8.42;79.66;100089.62;4417809;32;20562;-74
2020/12/17 09:03:55;;;;;;;8.05;3.85;;;;;;;8.44;79.69;100092.81;4418796;32;20069;-73
2020/12/17 09:06:27;;;;;;;12.75;3.97;;;;;;;8.38;79.50;100100.97;4420641;32;20041;-73
2020/12/17 09:08:54;;;;;;;15.88;4.03;;;;;;;8.41;79.62;100110.50;4414446;32;20053;-72
2020/12/17 09:11:36;;;;;;;14.20;3.95;;;;;;;8.48;79.20;100099.09;4417162;32;20152;-74
2020/12/17 09:14:04;;;;;;;13.13;4.03;;;;;;;8.54;78.97;100108.56;4418172;32;20528;-73
2020/12/17 09:16:31;;;;;;;14.43;4.10;;;;;;;8.53;79.15;100113.38;4420374;32;20490;-74
2020/12/17 09:18:59;;;;;;;12.68;4.18;;;;;;;8.50;79.29;100113.47;4417901;32;20105;-74
2020/12/17 09:21:25;;;;;;;20.70;8.48;;;;;;;8.54;79.02;100117.78;4417924;32;20061;-74
2020/12/17 09:23:54;;;;;;;10.68;4.15;;;;;;;8.49;79.20;100126.69;4418568;32;20068;-74
2020/12/17 09:26:20;;;;;;;9.85;4.80;;;;;;;8.56;79.20;100118.09;4416809;32;20160;-74
2020/12/17 09:28:51;;;;;;;9.32;4.20;;;;;;;8.53;79.03;100123.81;4416838;32;20088;-74
2020/12/17 09:31:19;;;;;;;11.32;4.15;;;;;;;8.61;79.04;100128.78;4415504;32;20434;-74
2020/12/17 09:33:45;;;;;;;11.35;3.78;;;;;;;8.63;79.00;100119.94;4414796;32;20210;-73
2020/12/17 09:36:15;;;;;;;8.88;4.07;;;;;;;8.67;78.73;100124.22;4409950;32;20145;-74
2020/12/17 09:38:41;;;;;;;9.98;4.53;;;;;;;8.73;78.75;100130.88;4409351;32;20065;-74
2020/12/17 09:41:07;;;;;;;14.70;4.85;;;;;;;8.81;78.44;100143.47;4408740;32;20068;-77
2020/12/17 09:43:33;;;;;;;18.92;5.85;;;;;;;8.87;78.05;100149.37;4405867;32;20041;-77
2020/12/17 09:45:59;;;;;;;15.35;4.50;;;;;;;8.96;77.68;100146.72;4406685;32;20387;-77
2020/12/17 09:48:28;;;;;;;15.02;3.80;;;;;;;9.05;77.31;100146.88;4409439;32;20165;-75
2020/12/17 09:53:39;;;;;;;11.95;3.28;;;;;;;9.65;75.50;100166.37;3996113;31;15013845;-76
2020/12/17 09:56:15;;;;;;;7.05;2.97;;;;;;;9.65;75.50;100166.37;4450974;32;20140;-77
2020/12/17 09:58:43;;;;;;;12.05;3.08;;;;;;;9.41;75.85;100164.28;4434065;32;20091;-77
2020/12/17 10:01:09;;;;;;;8.00;2.80;;;;;;;9.58;74.80;100171.44;4446965;32;20057;-77
2020/12/17 10:03:36;;;;;;;16.52;3.10;;;;;;;9.73;74.72;100176.16;4450576;32;20398;-76
2020/12/17 10:06:02;;;;;;;8.45;2.70;;;;;;;9.75;73.51;100175.72;4449459;32;20117;-77
2020/12/17 10:08:28;;;;;;;7.95;2.22;;;;;;;9.88;72.95;100177.31;4447845;32;20073;-76
2020/12/17 10:10:53;;;;;;;9.98;2.03;;;;;;;10.00;72.79;100178.56;4450009;32;20330;-76
2020/12/17 10:13:19;;;;;;;7.18;2.30;;;;;;;10.10;72.23;100186.72;4448605;32;20098;-76
2020/12/17 10:15:45;;;;;;;13.70;2.78;;;;;;;10.21;71.76;100182.81;4448469;32;20092;-76
2020/12/17 10:18:11;;;;;;;29.30;2.85;;;;;;;10.37;71.12;100193.94;4446655;32;20106;-77
2020/12/17 10:20:36;;;;;;;5.55;2.53;;;;;;;10.48;70.91;100194.38;4450085;32;20793;-76
2020/12/17 10:23:03;;;;;;;7.28;2.22;;;;;;;10.56;70.62;100190.88;4433868;32;20100;-76
2020/12/17 10:25:29;;;;;;;11.63;2.05;;;;;;;10.58;70.23;100194.00;4449356;32;20061;-76
2020/12/17 10:27:58;;;;;;;14.07;3.00;;;;;;;10.60;70.84;100199.19;4450300;32;20151;-76
2020/12/17 10:30:24;;;;;;;9.88;2.35;;;;;;;10.78;70.32;100196.59;4449398;32;20160;-76
2020/12/17 10:32:50;;;;;;;10.00;1.98;;;;;;;10.64;70.27;100202.66;4448743;32;20063;-77
2020/12/17 10:35:16;;;;;;;10.98;2.15;;;;;;;10.74;69.63;100196.69;4446183;32;20076;-77
2020/12/17 10:37:42;;;;;;;7.82;2.40;;;;;;;10.88;69.74;100204.69;4443303;32;20082;-77
2020/12/17 10:40:10;;;;;;;9.95;2.45;;;;;;;10.89;69.70;100205.47;4444845;32;20068;-78
2020/12/17 10:42:37;;;;;;;9.43;1.90;;;;;;;10.99;69.60;100201.50;4441709;32;20033;-77
2020/12/17 10:45:04;;;;;;;7.28;2.20;;;;;;;11.13;69.28;100212.25;4441366;32;20148;-77
2020/12/17 10:47:30;;;;;;;10.02;2.67;;;;;;;11.26;68.59;100210.97;4445064;32;20088;-75
2020/12/17 10:49:56;;;;;;;9.27;1.75;;;;;;;11.46;67.56;100205.03;4443636;32;20585;-76
2020/12/17 10:52:21;;;;;;;12.20;2.33;;;;;;;11.51;68.04;100207.28;4444852;32;20088;-74
2020/12/17 10:54:47;;;;;;;10.00;1.98;;;;;;;11.57;67.45;100203.41;4442928;32;20296;-76
2020/12/17 10:57:13;;;;;;;17.33;2.97;;;;;;;11.50;66.94;100208.50;4441039;32;20083;-75
2020/12/17 10:59:39;;;;;;;13.27;2.53;;;;;;;11.36;67.38;100215.47;4443012;32;20057;-75
2020/12/17 11:02:05;;;;;;;13.25;2.20;;;;;;;11.28;68.13;100221.78;4443440;32;20108;-76
2020/12/17 11:04:30;;;;;;;7.32;1.85;;;;;;;11.37;67.82;100213.41;4437571;32;20077;-75
2020/12/17 11:06:57;;;;;;;13.45;3.75;;;;;;;11.26;67.92;100219.44;4435824;32;20507;-75
2020/12/17 11:09:24;;;;;;;11.20;3.40;;;;;;;11.39;68.21;100228.62;4434448;32;20108;-76
2020/12/17 11:11:51;;;;;;;15.48;2.00;;;;;;;11.41;68.18;100236.63;4434868;32;20127;-75
2020/12/17 11:14:18;;;;;;;11.02;2.30;;;;;;;11.43;67.54;100225.69;4432394;32;20089;-74
2020/12/17 11:16:44;;;;;;;7.65;2.30;;;;;;;11.59;67.65;100225.50;4434998;32;20124;-77
2020/12/17 11:19:10;;;;;;;14.77;2.12;;;;;;;11.60;67.13;100227.84;4432688;32;20077;-78
2020/12/17 11:21:35;;;;;;;13.73;2.37;;;;;;;11.71;66.69;100224.69;4432861;32;20117;-77
2020/12/17 11:24:02;;;;;;;11.43;2.20;;;;;;;11.74;66.48;100232.22;4431807;32;20068;-79
2020/12/17 11:26:28;;;;;;;12.20;1.80;;;;;;;11.83;66.57;100232.28;4434094;32;20392;-78
2020/12/17 11:28:56;;;;;;;12.02;2.12;;;;;;;11.83;66.35;100232.28;4435147;32;20026;-78
2020/12/17 11:31:23;;;;;;;17.00;2.83;;;;;;;11.98;65.75;100234.13;4435243;32;20723;-76
2020/12/17 11:33:49;;;;;;;8.50;1.60;;;;;;;11.84;66.61;100231.03;4433809;32;20030;-79
2020/12/17 11:36:14;;;;;;;11.43;2.12;;;;;;;11.89;66.29;100219.19;4433447;32;20223;-76
2020/12/17 11:38:40;;;;;;;13.70;2.10;;;;;;;12.07;66.41;100220.09;4430203;32;20045;-74
2020/12/17 11:41:06;;;;;;;9.13;1.45;;;;;;;12.25;65.33;100224.25;4433436;32;20101;-74
2020/12/17 11:43:32;;;;;;;7.85;1.48;;;;;;;12.47;64.72;100227.78;4432752;32;21003;-75
2020/12/17 11:45:58;;;;;;;8.70;1.98;;;;;;;12.59;63.98;100224.88;4434036;32;20057;-75
2020/12/17 11:48:24;;;;;;;8.23;2.00;;;;;;;12.80;64.05;100215.53;4432666;32;20144;-75
2020/12/17 11:50:49;;;;;;;9.20;2.20;;;;;;;12.93;63.25;100212.56;4434186;32;20017;-75
2020/12/17 11:53:15;;;;;;;8.60;1.83;;;;;;;12.83;63.31;100208.97;4429693;32;20068;-74
2020/12/17 11:55:41;;;;;;;18.37;2.78;;;;;;;13.05;62.70;100204.00;4431574;32;20033;-73
2020/12/17 11:58:07;;;;;;;7.35;2.05;;;;;;;13.05;62.77;100208.88;4417116;32;20097;-72
2020/12/17 12:00:32;;;;;;;12.25;2.08;;;;;;;13.19;62.52;100214.69;4434083;32;20150;-73
2020/12/17 12:02:58;;;;;;;8.93;2.53;;;;;;;13.28;61.85;100223.19;4431277;32;20675;-73
2020/12/17 12:05:24;;;;;;;10.75;1.80;;;;;;;13.54;60.89;100206.72;4429067;32;20122;-77
2020/12/17 12:07:50;;;;;;;14.57;2.50;;;;;;;13.43;60.94;100218.47;4426963;32;20378;-76
2020/12/17 12:10:16;;;;;;;9.88;1.75;;;;;;;13.31;61.20;100213.78;4427349;32;20077;-77
2020/12/17 12:12:42;;;;;;;12.07;2.17;;;;;;;12.99;61.99;100217.19;4432057;32;20083;-77
2020/12/17 12:15:07;;;;;;;15.77;2.20;;;;;;;12.94;62.48;100217.75;4430400;32;20443;-76
2020/12/17 12:17:33;;;;;;;14.45;1.85;;;;;;;12.68;63.23;100221.28;4430107;32;20124;-76
2020/12/17 12:19:59;;;;;;;9.55;2.37;;;;;;;12.40;63.55;100220.41;4428814;32;21774;-75
2020/12/17 12:22:25;;;;;;;10.80;2.28;;;;;;;12.32;63.95;100219.09;4427303;32;20215;-76
2020/12/17 12:24:50;;;;;;;8.80;1.70;;;;;;;12.09;65.45;100211.94;4430205;32;20071;-76
2020/12/17 12:27:16;;;;;;;9.20;1.80;;;;;;;12.09;65.71;100220.41;4432784;32;20056;-77
2020/12/17 12:29:42;;;;;;;10.98;2.40;;;;;;;12.15;65.27;100212.12;4430102;32;20085;-76
2020/12/17 12:32:08;;;;;;;7.87;2.12;;;;;;;12.18;64.75;100213.25;4417358;32;20088;-76
2020/12/17 12:34:33;;;;;;;8.65;1.85;;;;;;;12.32;65.14;100212.66;4432402;32;20148;-75
2020/12/17 12:36:59;;;;;;;11.85;1.48;;;;;;;12.31;65.27;100206.25;4430133;32;20508;-75
2020/12/17 12:39:25;;;;;;;12.52;2.00;;;;;;;12.39;64.78;100210.34;4430223;32;20077;-74